Juergen K — PBKV — position and weather

sailwx.info

Track history (hours):
 
Tides and Currents Weather Stations Pressure Air Temp Water Temp Dewpoint Dewpoint Depression Visibility Wind Speed Wind Dir Waves Ship Positions

Juergen K

Last reported at 2016-May-02 07:31 UTC. Time now 2016-May-06 22:29 UTC.
Position N 39°04' W 009°51'.

Length 89 m; draft 5.5 m.

Type: Cargo ship. MMSI: 244329000.

Date/timePositionNaut miles runAvg speedWind from/ knotsBaromVisibWave heightAir tempDewpointWater temp
2016-May-02 07:31N 39°04' W 009°51'12 8.5
2016-May-02 06:07N 38°52' W 009°51'5 8.3
2016-May-02 05:33N 38°47' W 009°51'8 8.0
2016-May-02 04:33N 38°39' W 009°50'8 8.3
2016-May-02 03:33N 38°31' W 009°47'8 8.5
2016-May-02 02:33N 38°23' W 009°45'9 8.7
2016-May-02 01:33N 38°15' W 009°42'9 8.6
2016-May-02 00:33N 38°06' W 009°40'8 8.2
2016-May-01 23:33N 37°58' W 009°37'8 8.0
2016-May-01 22:33N 37°50' W 009°35'8 8.1
2016-May-01 21:33N 37°42' W 009°33'8 7.9
2016-May-01 20:33N 37°35' W 009°30'8 7.8
2016-May-01 19:33N 37°27' W 009°28'8 7.8
2016-May-01 18:33N 37°19' W 009°26'8 8.0
2016-May-01 17:33N 37°12' W 009°24'200 8.7
2016-Apr-30 18:33N 35°59' W 005°32'8 8.2
2016-Apr-30 17:33N 36°02' W 005°22'  
Track history (hours):
 
Tides and Currents Weather Stations Pressure Air Temp Water Temp Dewpoint Dewpoint Depression Visibility Wind Speed Wind Dir Waves Ship Positions

Juergen K

Last reported at 2016-May-02 07:31 UTC. Time now 2016-May-06 22:29 UTC.
Position N 39°04' W 009°51'.

Length 89 m; draft 5.5 m.

Type: Cargo ship. MMSI: 244329000.

Date/timePositionNaut miles runAvg speedWind from/ knotsBaromVisibWave heightAir tempDewpointWater temp
2016-May-02 07:31N 39°04' W 009°51'12 8.5
2016-May-02 06:07N 38°52' W 009°51'5 8.3
2016-May-02 05:33N 38°47' W 009°51'8 8.0
2016-May-02 04:33N 38°39' W 009°50'8 8.3
2016-May-02 03:33N 38°31' W 009°47'8 8.5
2016-May-02 02:33N 38°23' W 009°45'9 8.7
2016-May-02 01:33N 38°15' W 009°42'9 8.6
2016-May-02 00:33N 38°06' W 009°40'8 8.2
2016-May-01 23:33N 37°58' W 009°37'8 8.0
2016-May-01 22:33N 37°50' W 009°35'8 8.1
2016-May-01 21:33N 37°42' W 009°33'8 7.9
2016-May-01 20:33N 37°35' W 009°30'8 7.8
2016-May-01 19:33N 37°27' W 009°28'8 7.8
2016-May-01 18:33N 37°19' W 009°26'8 8.0
2016-May-01 17:33N 37°12' W 009°24'200 8.7
2016-Apr-30 18:33N 35°59' W 005°32'8 8.2
2016-Apr-30 17:33N 36°02' W 005°22'  

Dump ship's entire track history